createdAt,value
2023-04-02T00:00:11.707Z,33.17
2023-04-02T00:02:49.562Z,34.05
2023-04-02T00:05:18.476Z,33.78
2023-04-02T00:07:54.065Z,27.10
2023-04-02T00:10:37.017Z,29.42
2023-04-02T00:13:19.996Z,26.08
2023-04-02T00:15:50.674Z,27.80
2023-04-02T00:18:21.678Z,30.38
2023-04-02T00:20:56.290Z,29.83
2023-04-02T00:23:24.376Z,27.00
2023-04-02T00:25:51.801Z,26.25
2023-04-02T00:28:22.893Z,29.20
2023-04-02T00:30:56.396Z,26.13
2023-04-02T00:33:27.870Z,27.20
2023-04-02T00:35:56.253Z,29.15
2023-04-02T00:38:35.416Z,27.63
2023-04-02T00:41:05.522Z,31.40
2023-04-02T00:43:37.125Z,25.30
2023-04-02T00:46:14.361Z,21.25
2023-04-02T00:48:50.652Z,15.80
2023-04-02T00:51:25.205Z,22.58
2023-04-02T00:53:56.763Z,19.20
2023-04-02T00:56:46.460Z,19.45
2023-04-02T00:59:35.863Z,18.08
2023-04-02T01:02:17.540Z,19.95
2023-04-02T01:05:02.752Z,19.52
2023-04-02T01:07:47.562Z,16.25
2023-04-02T01:10:26.844Z,17.70
2023-04-02T01:13:20.270Z,21.27
2023-04-02T01:15:58.897Z,19.02
2023-04-02T01:18:41.588Z,20.15
2023-04-02T01:21:21.950Z,19.95
2023-04-02T01:24:07.566Z,23.52
2023-04-02T01:26:54.626Z,20.50
2023-04-02T01:29:25.835Z,22.30
2023-04-02T01:31:57.588Z,22.52
2023-04-02T01:34:28.542Z,24.95
2023-04-02T01:37:10.443Z,27.05
2023-04-02T01:39:46.286Z,28.23
2023-04-02T01:42:31.632Z,27.58
2023-04-02T01:45:09.062Z,25.48
2023-04-02T01:47:38.730Z,22.65
2023-04-02T01:50:25.017Z,23.58
2023-04-02T01:52:56.801Z,23.92
2023-04-02T01:55:42.131Z,25.92
2023-04-02T01:58:11.994Z,23.58
2023-04-02T02:01:08.545Z,22.35
2023-04-02T02:03:41.236Z,24.65
2023-04-02T02:06:14.205Z,28.27
2023-04-02T02:08:46.905Z,20.27
2023-04-02T02:11:21.785Z,21.83
2023-04-02T02:14:01.018Z,20.90
2023-04-02T02:16:32.010Z,19.77
2023-04-02T02:19:03.236Z,19.52
2023-04-02T02:21:46.738Z,17.48
2023-04-02T02:24:28.848Z,18.33
2023-04-02T02:27:04.888Z,17.35
2023-04-02T02:29:37.766Z,20.05
2023-04-02T02:32:10.365Z,16.30
2023-04-02T02:37:19.216Z,16.98
2023-04-02T02:39:54.045Z,16.65
2023-04-02T02:42:39.130Z,16.95
2023-04-02T02:45:13.188Z,17.52
2023-04-02T02:47:44.522Z,16.52
2023-04-02T02:50:26.963Z,13.65
2023-04-02T02:52:59.002Z,19.50
2023-04-02T02:55:34.589Z,16.20
2023-04-02T02:58:28.988Z,15.30
2023-04-02T03:01:13.363Z,13.82
2023-04-02T03:03:47.564Z,11.68
2023-04-02T03:06:20.911Z,13.68
2023-04-02T03:09:18.757Z,14.23
2023-04-02T03:12:34.710Z,12.70
2023-04-02T03:15:14.534Z,11.27
2023-04-02T03:18:05.686Z,11.68
2023-04-02T03:20:43.876Z,12.48
2023-04-02T03:23:29.780Z,10.75
2023-04-02T03:26:15.934Z,10.23
2023-04-02T03:28:51.003Z,11.60
2023-04-02T03:31:41.939Z,11.35
2023-04-02T03:34:23.852Z,9.18
2023-04-02T03:36:58.129Z,10.07
2023-04-02T03:39:50.615Z,8.48
2023-04-02T03:42:27.629Z,9.25
2023-04-02T03:45:10.147Z,10.38
2023-04-02T03:47:47.477Z,9.57
2023-04-02T03:50:21.769Z,8.88
2023-04-02T03:52:50.471Z,7.03
2023-04-02T03:55:26.568Z,8.48
2023-04-02T03:58:19.150Z,6.38
2023-04-02T04:01:18.959Z,6.15
2023-04-02T04:03:52.243Z,8.23
2023-04-02T04:08:55.776Z,9.05
2023-04-02T04:11:30.783Z,8.18
2023-04-02T04:14:16.459Z,9.10
2023-04-02T04:17:15.661Z,10.45
2023-04-02T04:20:22.205Z,7.60
2023-04-02T04:22:56.114Z,10.48
2023-04-02T04:25:30.097Z,9.63
2023-04-02T04:28:26.756Z,8.38
2023-04-02T04:31:04.297Z,10.82
2023-04-02T04:33:43.735Z,13.80
2023-04-02T04:36:28.877Z,11.77
2023-04-02T04:39:18.468Z,12.27
2023-04-02T04:41:51.292Z,12.15
2023-04-02T04:44:25.100Z,10.30
2023-04-02T04:47:00.585Z,12.52
2023-04-02T04:49:39.077Z,10.43
2023-04-02T04:52:26.906Z,13.88
2023-04-02T04:54:54.873Z,15.23
2023-04-02T04:57:36.348Z,14.65
2023-04-02T05:00:18.859Z,22.30
2023-04-02T05:03:09.859Z,19.63
2023-04-02T05:05:41.165Z,20.40
2023-04-02T05:08:17.076Z,20.15
2023-04-02T05:10:52.779Z,21.90
2023-04-02T05:13:39.045Z,22.90
2023-04-02T05:16:09.685Z,27.77
2023-04-02T05:18:43.443Z,29.40
2023-04-02T05:21:37.917Z,27.65
2023-04-02T05:24:43.964Z,25.90
2023-04-02T05:27:23.331Z,20.08
2023-04-02T05:30:10.005Z,17.48
2023-04-02T05:32:43.624Z,17.52
2023-04-02T05:35:21.326Z,14.88
2023-04-02T05:37:49.963Z,11.82
2023-04-02T05:40:27.700Z,14.80
2023-04-02T05:42:57.368Z,15.10
2023-04-02T05:45:34.970Z,10.60
2023-04-02T05:48:18.833Z,12.73
2023-04-02T05:50:53.811Z,14.68
2023-04-02T05:53:47.532Z,13.15
2023-04-02T05:56:23.880Z,14.27
2023-04-02T05:59:08.539Z,16.42
2023-04-02T06:01:56.217Z,15.63
2023-04-02T06:04:50.758Z,14.85
2023-04-02T06:07:21.908Z,15.93
2023-04-02T06:10:03.506Z,13.18
2023-04-02T06:12:47.264Z,12.30
2023-04-02T06:15:18.728Z,13.05
2023-04-02T06:18:19.674Z,11.98
2023-04-02T06:20:48.946Z,12.55
2023-04-02T06:23:20.183Z,11.13
2023-04-02T06:25:57.667Z,11.77
2023-04-02T06:28:31.425Z,14.63
2023-04-02T06:31:06.141Z,14.43
2023-04-02T06:33:37.258Z,12.73
2023-04-02T06:36:06.984Z,16.42
2023-04-02T06:38:38.158Z,15.23
2023-04-02T06:41:19.650Z,15.68
2023-04-02T06:44:16.080Z,21.15
2023-04-02T06:47:01.837Z,17.83
2023-04-02T06:49:33.462Z,20.42
2023-04-02T06:52:08.992Z,21.40
2023-04-02T06:54:36.762Z,18.63
2023-04-02T06:57:12.437Z,25.27
2023-04-02T06:59:43.104Z,28.98
2023-04-02T07:02:40.949Z,19.98
2023-04-02T07:05:11.918Z,19.90
2023-04-02T07:10:13.489Z,16.58
2023-04-02T07:12:41.198Z,18.30
2023-04-02T07:15:15.085Z,17.08
2023-04-02T07:17:43.993Z,14.65
2023-04-02T07:20:33.525Z,17.98
2023-04-02T07:23:06.489Z,17.25
2023-04-02T07:25:34.193Z,16.70
2023-04-02T07:28:02.072Z,17.60
2023-04-02T07:30:29.560Z,17.88
2023-04-02T07:32:57.148Z,21.48
2023-04-02T07:35:24.916Z,21.40
2023-04-02T07:37:53.073Z,18.42
2023-04-02T07:40:23.145Z,19.55
2023-04-02T07:42:50.886Z,19.48
2023-04-02T07:45:18.457Z,20.50
2023-04-02T07:47:46.524Z,16.40
2023-04-02T07:50:14.336Z,17.33
2023-04-02T07:52:43.165Z,15.77
2023-04-02T07:55:12.905Z,15.43
2023-04-02T07:57:48.484Z,16.33
2023-04-02T08:00:17.158Z,19.40
2023-04-02T08:02:45.164Z,17.83
2023-04-02T08:05:12.933Z,21.65
2023-04-02T08:07:41.716Z,18.10
2023-04-02T08:10:11.531Z,20.13
2023-04-02T08:12:39.136Z,14.13
2023-04-02T08:15:07.490Z,12.52
2023-04-02T08:17:35.431Z,15.40
2023-04-02T08:20:04.209Z,14.35
2023-04-02T08:22:31.735Z,14.82
2023-04-02T08:24:59.357Z,11.70
2023-04-02T08:27:27.418Z,11.95
2023-04-02T08:29:54.824Z,11.15
2023-04-02T08:32:23.186Z,7.88
2023-04-02T08:34:51.402Z,7.18
2023-04-02T08:37:18.893Z,10.13
2023-04-02T08:39:46.871Z,9.45
2023-04-02T08:42:29.433Z,9.65
2023-04-02T08:45:10.816Z,8.75
2023-04-02T08:47:51.558Z,12.07
2023-04-02T08:50:33.010Z,8.23
2023-04-02T08:53:04.742Z,8.90
2023-04-02T08:55:43.037Z,6.57
2023-04-02T08:58:43.163Z,8.23
2023-04-02T09:01:35.221Z,10.15
2023-04-02T09:04:06.205Z,10.43
2023-04-02T09:06:34.790Z,9.30
2023-04-02T09:09:02.317Z,7.32
2023-04-02T09:11:41.948Z,5.57
2023-04-02T09:14:20.020Z,8.48
2023-04-02T09:16:53.067Z,8.50
2023-04-02T09:19:25.539Z,5.75
2023-04-02T09:22:13.997Z,4.43
2023-04-02T09:24:41.632Z,7.18
2023-04-02T09:27:23.458Z,7.85
2023-04-02T09:30:01.021Z,6.75
2023-04-02T09:32:48.077Z,4.55
2023-04-02T09:35:27.400Z,6.90
2023-04-02T09:38:18.726Z,7.93
2023-04-02T09:40:58.870Z,8.05
2023-04-02T09:43:29.176Z,9.00
2023-04-02T09:46:01.356Z,8.25
2023-04-02T09:48:39.419Z,8.10
2023-04-02T09:51:15.058Z,7.35
2023-04-02T09:53:51.921Z,6.88
2023-04-02T09:56:25.977Z,10.15
2023-04-02T09:59:17.153Z,10.82
2023-04-02T10:01:53.614Z,12.35
2023-04-02T10:04:49.619Z,6.63
2023-04-02T10:07:35.698Z,8.73
2023-04-02T10:10:31.106Z,8.52
2023-04-02T10:13:20.147Z,9.18
2023-04-02T10:15:55.957Z,11.70
2023-04-02T10:18:50.956Z,6.97
2023-04-02T10:21:23.788Z,5.70
2023-04-02T10:23:51.498Z,5.53
2023-04-02T10:26:41.583Z,6.03
2023-04-02T10:29:53.060Z,6.15
2023-04-02T10:32:31.571Z,7.28
2023-04-02T10:35:04.076Z,7.80
2023-04-02T10:37:47.368Z,13.95
2023-04-02T10:40:33.426Z,10.68
2023-04-02T10:43:40.819Z,10.98
2023-04-02T10:46:33.543Z,8.00
2023-04-02T10:49:16.869Z,7.18
2023-04-02T10:51:48.890Z,7.20
2023-04-02T10:54:40.084Z,6.90
2023-04-02T10:57:16.793Z,9.50
2023-04-02T10:59:49.683Z,7.82
2023-04-02T11:02:32.479Z,9.33
2023-04-02T11:05:07.450Z,6.45
2023-04-02T11:07:45.830Z,8.70
2023-04-02T11:10:19.811Z,6.38
2023-04-02T11:12:55.116Z,6.00
2023-04-02T11:15:23.026Z,6.32
2023-04-02T11:17:50.818Z,9.13
2023-04-02T11:20:46.227Z,4.15
2023-04-02T11:23:17.874Z,7.22
2023-04-02T11:25:46.715Z,5.80
2023-04-02T11:28:32.069Z,7.47
2023-04-02T11:31:00.386Z,4.57
2023-04-02T11:33:46.069Z,8.45
2023-04-02T11:36:52.992Z,6.32
2023-04-02T11:39:46.677Z,6.32
2023-04-02T11:42:19.951Z,9.48
2023-04-02T11:44:47.488Z,9.75
2023-04-02T11:47:34.356Z,9.70
2023-04-02T11:50:04.506Z,8.18
2023-04-02T11:52:49.888Z,9.05
2023-04-02T11:55:35.231Z,8.18
2023-04-02T11:58:40.439Z,7.10
2023-04-02T12:01:30.244Z,9.88
2023-04-02T12:04:13.187Z,10.65
2023-04-02T12:06:47.307Z,10.35
2023-04-02T12:09:23.998Z,11.38
2023-04-02T12:11:54.960Z,8.48
2023-04-02T12:14:31.396Z,12.10
2023-04-02T12:16:59.854Z,6.88
2023-04-02T12:19:27.910Z,8.15
2023-04-02T12:21:56.599Z,8.43
2023-04-02T12:24:26.962Z,7.28
2023-04-02T12:27:22.926Z,10.80
2023-04-02T12:29:51.777Z,10.63
2023-04-02T12:32:22.305Z,11.43
2023-04-02T12:34:52.125Z,11.38
2023-04-02T12:37:28.033Z,11.82
2023-04-02T12:39:59.328Z,8.13
2023-04-02T12:42:34.022Z,11.82
2023-04-02T12:45:03.287Z,11.90
2023-04-02T12:47:31.424Z,8.95
2023-04-02T12:50:01.906Z,6.13
2023-04-02T12:52:30.658Z,12.50
2023-04-02T12:55:00.364Z,8.00
2023-04-02T12:57:28.818Z,7.40
2023-04-02T13:00:00.024Z,6.80
2023-04-02T13:02:30.359Z,9.38
2023-04-02T13:05:03.436Z,11.43
2023-04-02T13:07:33.743Z,9.02
2023-04-02T13:10:23.165Z,9.43
2023-04-02T13:12:58.957Z,8.40
2023-04-02T13:15:32.169Z,11.35
2023-04-02T13:18:22.895Z,9.07
2023-04-02T13:20:57.444Z,6.93
2023-04-02T13:23:31.046Z,9.90
2023-04-02T13:28:42.601Z,6.90
2023-04-02T13:31:17.020Z,6.25
2023-04-02T13:33:44.607Z,7.20
2023-04-02T13:36:15.802Z,8.25
2023-04-02T13:38:43.377Z,6.13
2023-04-02T13:42:00.671Z,6.72
2023-04-02T13:44:33.981Z,7.55
2023-04-02T13:47:02.046Z,11.30
2023-04-02T13:49:29.834Z,6.18
2023-04-02T13:52:01.008Z,7.65
2023-04-02T13:54:51.609Z,8.93
2023-04-02T13:57:19.438Z,8.88
2023-04-02T13:59:46.978Z,10.05
2023-04-02T14:02:19.062Z,9.30
2023-04-02T14:05:06.750Z,8.23
2023-04-02T14:07:42.183Z,8.68
2023-04-02T14:10:37.729Z,10.45
2023-04-02T14:13:39.204Z,8.07
2023-04-02T14:16:31.439Z,8.65
2023-04-02T14:19:22.367Z,7.93
2023-04-02T14:22:12.159Z,7.10
2023-04-02T14:24:58.666Z,7.90
2023-04-02T14:27:39.766Z,5.57
2023-04-02T14:30:17.541Z,6.75
2023-04-02T14:33:07.006Z,6.03
2023-04-02T14:35:45.129Z,6.30
2023-04-02T14:38:50.732Z,5.25
2023-04-02T14:41:29.100Z,6.78
2023-04-02T14:44:05.552Z,3.60
2023-04-02T14:46:37.480Z,5.95
2023-04-02T14:49:29.770Z,4.38
2023-04-02T14:52:04.670Z,3.63
2023-04-02T14:54:52.139Z,3.63
2023-04-02T14:57:24.701Z,3.72
2023-04-02T15:00:24.277Z,6.20
2023-04-02T15:03:03.778Z,4.07
2023-04-02T15:05:39.924Z,5.38
2023-04-02T15:08:16.165Z,5.40
2023-04-02T15:10:46.464Z,5.25
2023-04-02T15:13:21.404Z,7.28
2023-04-02T15:15:59.012Z,4.32
2023-04-02T15:18:26.985Z,7.97
2023-04-02T15:20:57.426Z,6.13
2023-04-02T15:23:43.179Z,5.20
2023-04-02T15:26:29.776Z,4.50
2023-04-02T15:29:04.177Z,5.95
2023-04-02T15:31:34.336Z,5.05
2023-04-02T15:34:22.838Z,6.20
2023-04-02T15:37:29.095Z,7.90
2023-04-02T15:40:02.860Z,5.82
2023-04-02T15:42:39.624Z,5.53
2023-04-02T15:45:17.407Z,8.23
2023-04-02T15:47:59.821Z,4.53
2023-04-02T15:51:06.154Z,6.13
2023-04-02T15:53:53.475Z,7.40
2023-04-02T15:56:38.739Z,7.63
2023-04-02T15:59:18.070Z,9.88
2023-04-02T16:01:59.576Z,11.25
2023-04-02T16:04:51.319Z,8.38
2023-04-02T16:07:19.239Z,6.47
2023-04-02T16:10:30.221Z,7.13
2023-04-02T16:13:27.056Z,4.68
2023-04-02T16:16:05.766Z,7.65
2023-04-02T16:18:59.267Z,5.80
2023-04-02T16:21:34.440Z,7.65
2023-04-02T16:24:02.029Z,5.82
2023-04-02T16:26:32.570Z,8.57
2023-04-02T16:29:19.280Z,15.13
2023-04-02T16:32:01.681Z,6.05
2023-04-02T16:35:05.036Z,6.68
2023-04-02T16:38:01.731Z,5.25
2023-04-02T16:41:08.408Z,7.70
2023-04-02T16:44:18.126Z,8.10
2023-04-02T16:47:12.691Z,12.02
2023-04-02T16:49:50.059Z,12.85
2023-04-02T16:52:39.200Z,9.98
2023-04-02T16:55:12.780Z,5.97
2023-04-02T16:58:08.123Z,9.25
2023-04-02T17:00:57.763Z,13.30
2023-04-02T17:03:37.388Z,8.95
2023-04-02T17:06:06.435Z,6.90
2023-04-02T17:08:44.404Z,5.93
2023-04-02T17:11:34.908Z,5.72
2023-04-02T17:14:15.540Z,7.97
2023-04-02T17:16:46.335Z,7.25
2023-04-02T17:19:16.682Z,8.73
2023-04-02T17:21:48.723Z,6.60
2023-04-02T17:24:26.173Z,4.05
2023-04-02T17:27:28.227Z,7.65
2023-04-02T17:30:04.411Z,6.10
2023-04-02T17:32:34.000Z,7.72
2023-04-02T17:35:20.778Z,8.00
2023-04-02T17:38:08.788Z,7.43
2023-04-02T17:40:48.833Z,4.35
2023-04-02T17:43:36.209Z,5.57
2023-04-02T17:46:22.018Z,6.72
2023-04-02T17:48:59.361Z,12.75
2023-04-02T17:51:39.592Z,6.68
2023-04-02T17:54:27.782Z,6.78
2023-04-02T17:57:00.448Z,7.18
2023-04-02T17:59:43.019Z,6.90
2023-04-02T18:02:42.571Z,7.38
2023-04-02T18:05:51.587Z,7.10
2023-04-02T18:08:30.965Z,4.72
2023-04-02T18:11:15.577Z,6.32
2023-04-02T18:13:49.696Z,6.53
2023-04-02T18:17:01.735Z,5.13
2023-04-02T18:19:43.978Z,7.30
2023-04-02T18:22:39.482Z,6.10
2023-04-02T18:25:40.069Z,7.82
2023-04-02T18:28:16.465Z,5.25
2023-04-02T18:31:11.744Z,4.40
2023-04-02T18:34:13.463Z,5.70
2023-04-02T18:37:15.354Z,4.80
2023-04-02T18:40:29.520Z,5.05
2023-04-02T18:43:41.733Z,15.63
2023-04-02T18:46:22.925Z,6.63
2023-04-02T18:49:37.011Z,7.20
2023-04-02T18:52:14.405Z,6.30
2023-04-02T18:55:15.975Z,7.70
2023-04-02T18:57:46.576Z,6.00
2023-04-02T19:00:36.781Z,4.95
2023-04-02T19:03:20.820Z,6.63
2023-04-02T19:05:56.793Z,5.75
2023-04-02T19:08:36.348Z,8.43
2023-04-02T19:11:15.758Z,7.82
2023-04-02T19:13:45.114Z,5.88
2023-04-02T19:16:50.235Z,7.85
2023-04-02T19:19:26.991Z,7.55
2023-04-02T19:22:12.906Z,8.52
2023-04-02T19:24:48.256Z,7.55
2023-04-02T19:27:42.408Z,5.95
2023-04-02T19:30:10.165Z,7.43
2023-04-02T19:33:07.237Z,6.85
2023-04-02T19:35:50.012Z,5.25
2023-04-02T19:38:50.161Z,4.90
2023-04-02T19:41:41.498Z,6.75
2023-04-02T19:44:13.555Z,6.07
2023-04-02T19:46:41.699Z,7.22
2023-04-02T19:49:16.896Z,6.50
2023-04-02T19:51:44.440Z,9.27
2023-04-02T19:54:12.913Z,7.85
2023-04-02T19:56:42.478Z,5.63
2023-04-02T19:59:17.985Z,7.93
2023-04-02T20:01:46.931Z,6.18
2023-04-02T20:04:15.250Z,7.07
2023-04-02T20:06:43.124Z,5.30
2023-04-02T20:09:11.057Z,5.68
2023-04-02T20:11:39.108Z,8.15
2023-04-02T20:14:06.933Z,5.40
2023-04-02T20:16:36.860Z,6.85
2023-04-02T20:19:04.405Z,9.63
2023-04-02T20:21:38.318Z,6.60
2023-04-02T20:24:07.731Z,8.63
2023-04-02T20:26:36.290Z,12.60
2023-04-02T20:29:04.064Z,11.00
2023-04-02T20:31:31.768Z,24.50
2023-04-02T20:34:00.072Z,28.95
2023-04-02T20:36:27.721Z,9.50
2023-04-02T20:38:55.909Z,7.40
2023-04-02T20:41:23.451Z,6.40
2023-04-02T20:43:50.996Z,8.95
2023-04-02T20:46:18.749Z,6.65
2023-04-02T20:48:47.052Z,13.40
2023-04-02T20:51:15.922Z,6.38
2023-04-02T20:53:43.541Z,11.90
2023-04-02T20:56:16.359Z,9.80
2023-04-02T20:58:44.745Z,7.00
2023-04-02T21:01:13.432Z,6.65
2023-04-02T21:03:41.114Z,9.68
2023-04-02T21:06:17.205Z,8.85
2023-04-02T21:08:44.696Z,7.10
2023-04-02T21:11:12.722Z,10.30
2023-04-02T21:13:44.214Z,8.30
2023-04-02T21:16:19.250Z,9.25
2023-04-02T21:18:48.487Z,6.78
2023-04-02T21:21:16.934Z,7.85
2023-04-02T21:23:45.369Z,7.43
2023-04-02T21:26:15.892Z,4.82
2023-04-02T21:28:44.578Z,5.95
2023-04-02T21:31:18.168Z,7.30
2023-04-02T21:33:48.318Z,5.07
2023-04-02T21:36:24.457Z,4.97
2023-04-02T21:39:06.187Z,7.68
2023-04-02T21:41:42.082Z,8.23
2023-04-02T21:44:13.698Z,4.03
2023-04-02T21:46:44.307Z,8.23
2023-04-02T21:49:14.416Z,9.00
2023-04-02T21:51:43.786Z,5.03
2023-04-02T21:54:11.566Z,9.32
2023-04-02T21:56:42.140Z,6.22
2023-04-02T21:59:11.677Z,9.70
2023-04-02T22:01:45.224Z,6.75
2023-04-02T22:04:22.232Z,5.80
2023-04-02T22:06:51.145Z,4.70
2023-04-02T22:09:22.768Z,6.63
2023-04-02T22:11:54.640Z,11.38
2023-04-02T22:14:23.341Z,10.27
2023-04-02T22:16:52.057Z,8.40
2023-04-02T22:19:20.041Z,5.53
2023-04-02T22:21:47.598Z,8.60
2023-04-02T22:24:18.853Z,5.40
2023-04-02T22:26:47.038Z,5.20
2023-04-02T22:29:15.836Z,5.90
2023-04-02T22:31:43.785Z,7.82
2023-04-02T22:34:11.268Z,4.30
2023-04-02T22:36:38.753Z,5.43
2023-04-02T22:39:10.404Z,3.67
2023-04-02T22:41:38.505Z,6.43
2023-04-02T22:44:06.117Z,5.18
2023-04-02T22:46:34.730Z,4.85
2023-04-02T22:49:03.007Z,4.43
2023-04-02T22:51:31.143Z,4.82
2023-04-02T22:53:58.648Z,4.03
2023-04-02T22:56:31.904Z,4.88
2023-04-02T22:58:59.798Z,6.60
2023-04-02T23:01:30.990Z,6.45
2023-04-02T23:03:58.423Z,6.03
2023-04-02T23:06:37.867Z,6.65
2023-04-02T23:09:05.692Z,5.07
2023-04-02T23:11:33.625Z,6.63
2023-04-02T23:14:01.187Z,4.00
2023-04-02T23:16:29.466Z,5.22
2023-04-02T23:18:57.495Z,4.55
2023-04-02T23:21:26.327Z,5.00
2023-04-02T23:23:54.407Z,4.47
2023-04-02T23:26:29.543Z,4.10
2023-04-02T23:28:58.680Z,7.03
2023-04-02T23:31:26.716Z,6.30
2023-04-02T23:33:54.354Z,3.60
2023-04-02T23:36:33.676Z,4.97
2023-04-02T23:39:04.524Z,11.65
2023-04-02T23:41:32.141Z,5.82
2023-04-02T23:43:59.783Z,6.65
2023-04-02T23:46:28.117Z,8.32
2023-04-02T23:48:56.253Z,9.18
2023-04-02T23:51:24.752Z,4.50
2023-04-02T23:53:53.638Z,3.58
2023-04-02T23:56:22.165Z,4.80
2023-04-02T23:58:50.633Z,4.75
